sensor_id;sensor_type;location;lat;lon;timestamp;P1;durP1;ratioP1;P2;durP2;ratioP2
81834;SDS011;71272;52.166;4.498;2024-03-22T00:01:09;45.03;;;16.03;;
81834;SDS011;71272;52.166;4.498;2024-03-22T00:03:34;43.50;;;16.10;;
81834;SDS011;71272;52.166;4.498;2024-03-22T00:05:59;42.37;;;17.17;;
81834;SDS011;71272;52.166;4.498;2024-03-22T00:08:25;38.80;;;15.57;;
81834;SDS011;71272;52.166;4.498;2024-03-22T00:10:50;42.07;;;14.80;;
81834;SDS011;71272;52.166;4.498;2024-03-22T00:13:15;45.65;;;17.23;;
81834;SDS011;71272;52.166;4.498;2024-03-22T00:15:41;44.37;;;16.17;;
81834;SDS011;71272;52.166;4.498;2024-03-22T00:18:09;44.97;;;16.25;;
81834;SDS011;71272;52.166;4.498;2024-03-22T00:20:34;45.07;;;15.97;;
81834;SDS011;71272;52.166;4.498;2024-03-22T00:22:59;40.40;;;16.10;;
81834;SDS011;71272;52.166;4.498;2024-03-22T00:25:25;38.65;;;15.20;;
81834;SDS011;71272;52.166;4.498;2024-03-22T00:27:50;45.23;;;15.20;;
81834;SDS011;71272;52.166;4.498;2024-03-22T00:30:15;43.67;;;15.43;;
81834;SDS011;71272;52.166;4.498;2024-03-22T00:32:40;42.60;;;15.63;;
81834;SDS011;71272;52.166;4.498;2024-03-22T00:35:09;42.40;;;16.38;;
81834;SDS011;71272;52.166;4.498;2024-03-22T00:37:34;43.63;;;15.23;;
81834;SDS011;71272;52.166;4.498;2024-03-22T00:39:59;40.23;;;14.93;;
81834;SDS011;71272;52.166;4.498;2024-03-22T00:42:25;32.87;;;14.40;;
81834;SDS011;71272;52.166;4.498;2024-03-22T00:44:50;44.37;;;17.17;;
81834;SDS011;71272;52.166;4.498;2024-03-22T00:47:15;39.53;;;14.73;;
81834;SDS011;71272;52.166;4.498;2024-03-22T00:49:40;44.07;;;16.53;;
81834;SDS011;71272;52.166;4.498;2024-03-22T00:52:06;45.43;;;18.30;;
81834;SDS011;71272;52.166;4.498;2024-03-22T00:54:31;47.83;;;17.85;;
81834;SDS011;71272;52.166;4.498;2024-03-22T00:56:56;53.03;;;19.63;;
81834;SDS011;71272;52.166;4.498;2024-03-22T00:59:22;52.97;;;20.03;;
81834;SDS011;71272;52.166;4.498;2024-03-22T01:01:48;48.90;;;19.23;;
81834;SDS011;71272;52.166;4.498;2024-03-22T01:04:14;45.65;;;17.52;;
81834;SDS011;71272;52.166;4.498;2024-03-22T01:06:39;52.13;;;18.30;;
81834;SDS011;71272;52.166;4.498;2024-03-22T01:09:05;45.95;;;19.25;;
81834;SDS011;71272;52.166;4.498;2024-03-22T01:11:31;49.13;;;19.75;;
81834;SDS011;71272;52.166;4.498;2024-03-22T01:13:56;47.70;;;17.87;;
81834;SDS011;71272;52.166;4.498;2024-03-22T01:16:22;48.10;;;17.65;;
81834;SDS011;71272;52.166;4.498;2024-03-22T01:18:47;44.58;;;15.90;;
81834;SDS011;71272;52.166;4.498;2024-03-22T01:21:13;45.65;;;16.52;;
81834;SDS011;71272;52.166;4.498;2024-03-22T01:23:38;38.25;;;15.90;;
81834;SDS011;71272;52.166;4.498;2024-03-22T01:26:04;36.87;;;15.70;;
81834;SDS011;71272;52.166;4.498;2024-03-22T01:28:29;39.97;;;15.23;;
81834;SDS011;71272;52.166;4.498;2024-03-22T01:30:54;41.67;;;15.80;;
81834;SDS011;71272;52.166;4.498;2024-03-22T01:33:20;41.37;;;16.03;;
81834;SDS011;71272;52.166;4.498;2024-03-22T01:35:45;42.97;;;17.93;;
81834;SDS011;71272;52.166;4.498;2024-03-22T01:38:10;38.10;;;17.73;;
81834;SDS011;71272;52.166;4.498;2024-03-22T01:40:36;48.67;;;16.47;;
81834;SDS011;71272;52.166;4.498;2024-03-22T01:43:01;41.20;;;16.13;;
81834;SDS011;71272;52.166;4.498;2024-03-22T01:45:27;39.37;;;15.73;;
81834;SDS011;71272;52.166;4.498;2024-03-22T01:47:57;29.45;;;14.82;;
81834;SDS011;71272;52.166;4.498;2024-03-22T01:50:22;35.38;;;16.35;;
81834;SDS011;71272;52.166;4.498;2024-03-22T01:52:48;37.67;;;15.48;;
81834;SDS011;71272;52.166;4.498;2024-03-22T01:55:14;31.92;;;13.55;;
81834;SDS011;71272;52.166;4.498;2024-03-22T01:57:39;34.08;;;13.07;;
81834;SDS011;71272;52.166;4.498;2024-03-22T02:00:05;29.55;;;14.30;;
81834;SDS011;71272;52.166;4.498;2024-03-22T02:02:33;30.20;;;13.10;;
81834;SDS011;71272;52.166;4.498;2024-03-22T02:04:58;28.13;;;13.10;;
81834;SDS011;71272;52.166;4.498;2024-03-22T02:07:24;25.47;;;13.70;;
81834;SDS011;71272;52.166;4.498;2024-03-22T02:09:52;32.35;;;13.95;;
81834;SDS011;71272;52.166;4.498;2024-03-22T02:12:17;26.77;;;12.63;;
81834;SDS011;71272;52.166;4.498;2024-03-22T02:14:43;26.97;;;12.23;;
81834;SDS011;71272;52.166;4.498;2024-03-22T02:17:09;26.83;;;13.23;;
81834;SDS011;71272;52.166;4.498;2024-03-22T02:19:34;28.57;;;13.43;;
81834;SDS011;71272;52.166;4.498;2024-03-22T02:21:59;26.53;;;14.27;;
81834;SDS011;71272;52.166;4.498;2024-03-22T02:24:24;26.47;;;12.03;;
81834;SDS011;71272;52.166;4.498;2024-03-22T02:26:50;35.57;;;14.00;;
81834;SDS011;71272;52.166;4.498;2024-03-22T02:29:15;33.20;;;13.83;;
81834;SDS011;71272;52.166;4.498;2024-03-22T02:31:40;29.07;;;12.53;;
81834;SDS011;71272;52.166;4.498;2024-03-22T02:34:06;30.90;;;13.75;;
81834;SDS011;71272;52.166;4.498;2024-03-22T02:36:31;30.03;;;12.40;;
81834;SDS011;71272;52.166;4.498;2024-03-22T02:38:56;25.43;;;12.50;;
81834;SDS011;71272;52.166;4.498;2024-03-22T02:41:22;29.40;;;12.23;;
81834;SDS011;71272;52.166;4.498;2024-03-22T02:43:47;30.57;;;12.87;;
81834;SDS011;71272;52.166;4.498;2024-03-22T02:46:12;33.00;;;12.50;;
81834;SDS011;71272;52.166;4.498;2024-03-22T02:48:38;32.35;;;12.65;;
81834;SDS011;71272;52.166;4.498;2024-03-22T02:51:03;32.40;;;12.13;;
81834;SDS011;71272;52.166;4.498;2024-03-22T02:53:29;28.27;;;11.15;;
81834;SDS011;71272;52.166;4.498;2024-03-22T02:55:54;28.80;;;12.53;;
81834;SDS011;71272;52.166;4.498;2024-03-22T02:58:20;23.10;;;10.00;;
81834;SDS011;71272;52.166;4.498;2024-03-22T03:00:46;26.45;;;9.93;;
81834;SDS011;71272;52.166;4.498;2024-03-22T03:03:11;28.17;;;9.82;;
81834;SDS011;71272;52.166;4.498;2024-03-22T03:05:36;24.83;;;10.33;;
81834;SDS011;71272;52.166;4.498;2024-03-22T03:08:02;30.20;;;10.73;;
81834;SDS011;71272;52.166;4.498;2024-03-22T03:10:28;23.58;;;10.57;;
81834;SDS011;71272;52.166;4.498;2024-03-22T03:12:56;33.70;;;9.97;;
81834;SDS011;71272;52.166;4.498;2024-03-22T03:15:21;26.10;;;9.43;;
81834;SDS011;71272;52.166;4.498;2024-03-22T03:17:47;24.53;;;10.27;;
81834;SDS011;71272;52.166;4.498;2024-03-22T03:20:12;30.07;;;9.27;;
81834;SDS011;71272;52.166;4.498;2024-03-22T03:22:41;26.15;;;9.80;;
81834;SDS011;71272;52.166;4.498;2024-03-22T03:25:06;28.20;;;10.10;;
81834;SDS011;71272;52.166;4.498;2024-03-22T03:27:32;22.95;;;10.98;;
81834;SDS011;71272;52.166;4.498;2024-03-22T03:29:58;30.92;;;10.70;;
81834;SDS011;71272;52.166;4.498;2024-03-22T03:32:23;27.67;;;9.83;;
81834;SDS011;71272;52.166;4.498;2024-03-22T03:34:49;28.95;;;9.38;;
81834;SDS011;71272;52.166;4.498;2024-03-22T03:37:15;22.80;;;8.85;;
81834;SDS011;71272;52.166;4.498;2024-03-22T03:39:40;25.37;;;10.13;;
81834;SDS011;71272;52.166;4.498;2024-03-22T03:42:06;23.20;;;9.30;;
81834;SDS011;71272;52.166;4.498;2024-03-22T03:44:31;29.05;;;9.40;;
81834;SDS011;71272;52.166;4.498;2024-03-22T03:46:56;22.53;;;8.77;;
81834;SDS011;71272;52.166;4.498;2024-03-22T03:49:22;29.37;;;9.10;;
81834;SDS011;71272;52.166;4.498;2024-03-22T03:51:47;21.87;;;7.50;;
81834;SDS011;71272;52.166;4.498;2024-03-22T03:54:12;24.70;;;8.17;;
81834;SDS011;71272;52.166;4.498;2024-03-22T03:56:38;24.17;;;8.67;;
81834;SDS011;71272;52.166;4.498;2024-03-22T03:59:03;25.77;;;9.15;;
81834;SDS011;71272;52.166;4.498;2024-03-22T04:01:28;23.43;;;8.40;;
81834;SDS011;71272;52.166;4.498;2024-03-22T04:03:53;23.63;;;8.30;;
81834;SDS011;71272;52.166;4.498;2024-03-22T04:06:19;23.67;;;8.37;;
81834;SDS011;71272;52.166;4.498;2024-03-22T04:08:44;27.20;;;9.33;;
81834;SDS011;71272;52.166;4.498;2024-03-22T04:11:10;26.33;;;8.15;;
81834;SDS011;71272;52.166;4.498;2024-03-22T04:13:36;19.35;;;7.88;;
81834;SDS011;71272;52.166;4.498;2024-03-22T04:16:01;19.30;;;8.65;;
81834;SDS011;71272;52.166;4.498;2024-03-22T04:18:27;26.02;;;8.88;;
81834;SDS011;71272;52.166;4.498;2024-03-22T04:20:53;23.87;;;7.13;;
81834;SDS011;71272;52.166;4.498;2024-03-22T04:23:23;29.40;;;8.20;;
81834;SDS011;71272;52.166;4.498;2024-03-22T04:25:53;35.17;;;8.70;;
81834;SDS011;71272;52.166;4.498;2024-03-22T04:28:22;22.95;;;7.20;;
81834;SDS011;71272;52.166;4.498;2024-03-22T04:33:20;20.55;;;6.85;;
81834;SDS011;71272;52.166;4.498;2024-03-22T04:35:46;16.98;;;6.57;;
81834;SDS011;71272;52.166;4.498;2024-03-22T04:38:11;17.07;;;6.23;;
81834;SDS011;71272;52.166;4.498;2024-03-22T04:40:36;23.53;;;6.97;;
81834;SDS011;71272;52.166;4.498;2024-03-22T04:43:02;20.67;;;6.67;;
81834;SDS011;71272;52.166;4.498;2024-03-22T04:45:30;19.00;;;5.55;;
81834;SDS011;71272;52.166;4.498;2024-03-22T04:47:55;21.37;;;5.60;;
81834;SDS011;71272;52.166;4.498;2024-03-22T04:50:20;20.30;;;6.80;;
81834;SDS011;71272;52.166;4.498;2024-03-22T04:52:46;25.33;;;6.37;;
81834;SDS011;71272;52.166;4.498;2024-03-22T04:55:11;14.23;;;6.40;;
81834;SDS011;71272;52.166;4.498;2024-03-22T04:57:36;23.88;;;6.95;;
81834;SDS011;71272;52.166;4.498;2024-03-22T05:00:02;15.60;;;6.33;;
81834;SDS011;71272;52.166;4.498;2024-03-22T05:02:28;17.88;;;6.18;;
81834;SDS011;71272;52.166;4.498;2024-03-22T05:04:53;15.10;;;6.47;;
81834;SDS011;71272;52.166;4.498;2024-03-22T05:07:18;29.77;;;6.83;;
81834;SDS011;71272;52.166;4.498;2024-03-22T05:09:44;18.07;;;6.17;;
81834;SDS011;71272;52.166;4.498;2024-03-22T05:12:09;18.57;;;6.20;;
81834;SDS011;71272;52.166;4.498;2024-03-22T05:14:34;26.23;;;5.93;;
81834;SDS011;71272;52.166;4.498;2024-03-22T05:17:00;18.25;;;6.47;;
81834;SDS011;71272;52.166;4.498;2024-03-22T05:19:25;24.33;;;6.37;;
81834;SDS011;71272;52.166;4.498;2024-03-22T05:21:51;24.88;;;6.40;;
81834;SDS011;71272;52.166;4.498;2024-03-22T05:24:16;17.07;;;6.13;;
81834;SDS011;71272;52.166;4.498;2024-03-22T05:26:42;16.67;;;5.70;;
81834;SDS011;71272;52.166;4.498;2024-03-22T05:29:07;24.20;;;6.33;;
81834;SDS011;71272;52.166;4.498;2024-03-22T05:31:32;18.10;;;6.57;;
81834;SDS011;71272;52.166;4.498;2024-03-22T05:34:11;17.38;;;5.80;;
81834;SDS011;71272;52.166;4.498;2024-03-22T05:36:36;19.97;;;5.80;;
81834;SDS011;71272;52.166;4.498;2024-03-22T05:39:02;23.13;;;6.28;;
81834;SDS011;71272;52.166;4.498;2024-03-22T05:41:27;19.73;;;5.90;;
81834;SDS011;71272;52.166;4.498;2024-03-22T05:43:52;14.80;;;5.47;;
81834;SDS011;71272;52.166;4.498;2024-03-22T05:46:18;16.67;;;5.07;;
81834;SDS011;71272;52.166;4.498;2024-03-22T05:48:43;13.18;;;4.72;;
81834;SDS011;71272;52.166;4.498;2024-03-22T05:51:08;20.10;;;6.03;;
81834;SDS011;71272;52.166;4.498;2024-03-22T05:53:33;22.23;;;5.47;;
81834;SDS011;71272;52.166;4.498;2024-03-22T05:56:02;17.83;;;5.10;;
81834;SDS011;71272;52.166;4.498;2024-03-22T05:58:27;20.77;;;6.18;;
81834;SDS011;71272;52.166;4.498;2024-03-22T06:00:52;19.73;;;5.70;;
81834;SDS011;71272;52.166;4.498;2024-03-22T06:03:18;19.55;;;6.38;;
81834;SDS011;71272;52.166;4.498;2024-03-22T06:05:43;17.60;;;6.20;;
81834;SDS011;71272;52.166;4.498;2024-03-22T06:08:09;18.83;;;5.72;;
81834;SDS011;71272;52.166;4.498;2024-03-22T06:10:34;15.90;;;5.77;;
81834;SDS011;71272;52.166;4.498;2024-03-22T06:12:59;26.13;;;6.87;;
81834;SDS011;71272;52.166;4.498;2024-03-22T06:15:25;20.50;;;5.93;;
81834;SDS011;71272;52.166;4.498;2024-03-22T06:17:50;19.77;;;5.83;;
81834;SDS011;71272;52.166;4.498;2024-03-22T06:20:16;22.85;;;6.30;;
81834;SDS011;71272;52.166;4.498;2024-03-22T06:22:41;19.97;;;6.37;;
81834;SDS011;71272;52.166;4.498;2024-03-22T06:25:06;15.40;;;5.27;;
81834;SDS011;71272;52.166;4.498;2024-03-22T06:27:32;20.50;;;5.50;;
81834;SDS011;71272;52.166;4.498;2024-03-22T06:29:57;15.90;;;5.23;;
81834;SDS011;71272;52.166;4.498;2024-03-22T06:32:22;14.93;;;5.13;;
81834;SDS011;71272;52.166;4.498;2024-03-22T06:34:48;19.08;;;5.20;;
81834;SDS011;71272;52.166;4.498;2024-03-22T06:37:13;14.73;;;5.00;;
81834;SDS011;71272;52.166;4.498;2024-03-22T06:39:38;12.13;;;4.20;;
81834;SDS011;71272;52.166;4.498;2024-03-22T06:42:04;16.03;;;5.50;;
81834;SDS011;71272;52.166;4.498;2024-03-22T06:44:29;15.55;;;4.95;;
81834;SDS011;71272;52.166;4.498;2024-03-22T06:46:54;17.10;;;4.90;;
81834;SDS011;71272;52.166;4.498;2024-03-22T06:49:19;20.20;;;5.40;;
81834;SDS011;71272;52.166;4.498;2024-03-22T06:51:45;20.33;;;5.85;;
81834;SDS011;71272;52.166;4.498;2024-03-22T06:54:10;16.97;;;5.60;;
81834;SDS011;71272;52.166;4.498;2024-03-22T06:56:36;17.60;;;4.90;;
81834;SDS011;71272;52.166;4.498;2024-03-22T06:59:01;28.42;;;6.60;;
81834;SDS011;71272;52.166;4.498;2024-03-22T07:01:26;17.77;;;5.60;;
81834;SDS011;71272;52.166;4.498;2024-03-22T07:03:52;23.50;;;6.07;;
81834;SDS011;71272;52.166;4.498;2024-03-22T07:06:17;18.48;;;5.63;;
81834;SDS011;71272;52.166;4.498;2024-03-22T07:08:43;15.70;;;6.57;;
81834;SDS011;71272;52.166;4.498;2024-03-22T07:11:08;17.50;;;5.80;;
81834;SDS011;71272;52.166;4.498;2024-03-22T07:13:34;19.20;;;5.83;;
81834;SDS011;71272;52.166;4.498;2024-03-22T07:15:59;15.55;;;5.30;;
81834;SDS011;71272;52.166;4.498;2024-03-22T07:18:25;21.65;;;6.47;;
81834;SDS011;71272;52.166;4.498;2024-03-22T07:20:51;23.88;;;6.40;;
81834;SDS011;71272;52.166;4.498;2024-03-22T07:23:16;20.00;;;6.10;;
81834;SDS011;71272;52.166;4.498;2024-03-22T07:25:41;19.83;;;7.23;;
81834;SDS011;71272;52.166;4.498;2024-03-22T07:28:13;26.85;;;7.80;;
81834;SDS011;71272;52.166;4.498;2024-03-22T07:30:40;17.52;;;5.90;;
81834;SDS011;71272;52.166;4.498;2024-03-22T07:33:05;17.60;;;5.83;;
81834;SDS011;71272;52.166;4.498;2024-03-22T07:35:30;18.33;;;6.37;;
81834;SDS011;71272;52.166;4.498;2024-03-22T07:37:56;30.63;;;7.73;;
81834;SDS011;71272;52.166;4.498;2024-03-22T07:40:22;24.08;;;6.65;;
81834;SDS011;71272;52.166;4.498;2024-03-22T07:42:47;18.60;;;7.40;;
81834;SDS011;71272;52.166;4.498;2024-03-22T07:45:12;31.20;;;7.43;;
81834;SDS011;71272;52.166;4.498;2024-03-22T07:47:38;29.13;;;7.43;;
81834;SDS011;71272;52.166;4.498;2024-03-22T07:50:03;19.42;;;6.70;;
81834;SDS011;71272;52.166;4.498;2024-03-22T07:52:29;22.27;;;7.20;;
81834;SDS011;71272;52.166;4.498;2024-03-22T07:54:54;20.80;;;6.40;;
81834;SDS011;71272;52.166;4.498;2024-03-22T07:57:20;15.10;;;6.63;;
81834;SDS011;71272;52.166;4.498;2024-03-22T07:59:45;22.33;;;5.88;;
81834;SDS011;71272;52.166;4.498;2024-03-22T08:02:11;21.77;;;6.53;;
81834;SDS011;71272;52.166;4.498;2024-03-22T08:04:36;16.30;;;6.60;;
81834;SDS011;71272;52.166;4.498;2024-03-22T08:07:02;16.03;;;5.60;;
81834;SDS011;71272;52.166;4.498;2024-03-22T08:09:27;15.53;;;5.90;;
81834;SDS011;71272;52.166;4.498;2024-03-22T08:11:52;29.07;;;6.67;;
81834;SDS011;71272;52.166;4.498;2024-03-22T08:14:17;17.93;;;5.97;;
81834;SDS011;71272;52.166;4.498;2024-03-22T08:16:43;26.87;;;7.13;;
81834;SDS011;71272;52.166;4.498;2024-03-22T08:19:08;17.40;;;6.17;;
81834;SDS011;71272;52.166;4.498;2024-03-22T08:21:33;19.80;;;6.33;;
81834;SDS011;71272;52.166;4.498;2024-03-22T08:23:59;26.25;;;8.05;;
81834;SDS011;71272;52.166;4.498;2024-03-22T08:26:25;25.02;;;7.55;;
81834;SDS011;71272;52.166;4.498;2024-03-22T08:28:50;20.23;;;6.50;;
81834;SDS011;71272;52.166;4.498;2024-03-22T08:31:15;20.10;;;7.17;;
81834;SDS011;71272;52.166;4.498;2024-03-22T08:33:42;23.67;;;8.38;;
81834;SDS011;71272;52.166;4.498;2024-03-22T08:36:07;21.27;;;7.15;;
81834;SDS011;71272;52.166;4.498;2024-03-22T08:38:32;25.25;;;7.38;;
81834;SDS011;71272;52.166;4.498;2024-03-22T08:40:58;24.80;;;7.72;;
81834;SDS011;71272;52.166;4.498;2024-03-22T08:43:24;28.58;;;7.75;;
81834;SDS011;71272;52.166;4.498;2024-03-22T08:45:54;18.98;;;6.18;;
81834;SDS011;71272;52.166;4.498;2024-03-22T08:48:19;20.27;;;7.38;;
81834;SDS011;71272;52.166;4.498;2024-03-22T08:50:44;21.47;;;7.40;;
81834;SDS011;71272;52.166;4.498;2024-03-22T08:53:10;15.57;;;6.40;;
81834;SDS011;71272;52.166;4.498;2024-03-22T08:55:35;19.52;;;7.90;;
81834;SDS011;71272;52.166;4.498;2024-03-22T08:58:01;26.85;;;7.50;;
81834;SDS011;71272;52.166;4.498;2024-03-22T09:00:27;22.08;;;7.80;;
81834;SDS011;71272;52.166;4.498;2024-03-22T09:02:52;19.50;;;7.50;;
81834;SDS011;71272;52.166;4.498;2024-03-22T09:05:17;25.03;;;8.03;;
81834;SDS011;71272;52.166;4.498;2024-03-22T09:07:43;19.55;;;7.43;;
81834;SDS011;71272;52.166;4.498;2024-03-22T09:10:09;22.55;;;8.00;;
81834;SDS011;71272;52.166;4.498;2024-03-22T09:12:34;24.05;;;8.10;;
81834;SDS011;71272;52.166;4.498;2024-03-22T09:14:59;26.52;;;8.95;;
81834;SDS011;71272;52.166;4.498;2024-03-22T09:17:25;21.48;;;7.40;;
81834;SDS011;71272;52.166;4.498;2024-03-22T09:19:51;29.83;;;7.97;;
81834;SDS011;71272;52.166;4.498;2024-03-22T09:22:16;26.70;;;8.13;;
81834;SDS011;71272;52.166;4.498;2024-03-22T09:24:41;24.63;;;8.88;;
81834;SDS011;71272;52.166;4.498;2024-03-22T09:27:07;22.13;;;7.80;;
81834;SDS011;71272;52.166;4.498;2024-03-22T09:29:35;34.40;;;9.48;;
81834;SDS011;71272;52.166;4.498;2024-03-22T09:32:01;27.90;;;8.07;;
81834;SDS011;71272;52.166;4.498;2024-03-22T09:34:27;21.40;;;8.68;;
81834;SDS011;71272;52.166;4.498;2024-03-22T09:36:55;27.95;;;8.38;;
81834;SDS011;71272;52.166;4.498;2024-03-22T09:39:21;26.50;;;9.55;;
81834;SDS011;71272;52.166;4.498;2024-03-22T09:41:47;16.27;;;8.20;;
81834;SDS011;71272;52.166;4.498;2024-03-22T09:44:13;23.85;;;9.63;;
81834;SDS011;71272;52.166;4.498;2024-03-22T09:46:40;17.98;;;9.13;;
81834;SDS011;71272;52.166;4.498;2024-03-22T09:49:07;29.05;;;10.95;;
81834;SDS011;71272;52.166;4.498;2024-03-22T09:51:35;25.45;;;8.93;;
81834;SDS011;71272;52.166;4.498;2024-03-22T09:54:02;20.60;;;9.10;;
81834;SDS011;71272;52.166;4.498;2024-03-22T09:56:27;20.02;;;9.05;;
81834;SDS011;71272;52.166;4.498;2024-03-22T09:58:55;29.90;;;8.75;;
81834;SDS011;71272;52.166;4.498;2024-03-22T10:01:21;27.23;;;8.85;;
81834;SDS011;71272;52.166;4.498;2024-03-22T10:03:48;28.33;;;10.23;;
81834;SDS011;71272;52.166;4.498;2024-03-22T10:06:14;26.85;;;10.20;;
81834;SDS011;71272;52.166;4.498;2024-03-22T10:08:40;21.00;;;9.13;;
81834;SDS011;71272;52.166;4.498;2024-03-22T10:11:05;23.77;;;11.50;;
81834;SDS011;71272;52.166;4.498;2024-03-22T10:13:30;21.53;;;10.43;;
81834;SDS011;71272;52.166;4.498;2024-03-22T10:15:56;23.97;;;10.43;;
81834;SDS011;71272;52.166;4.498;2024-03-22T10:18:22;22.00;;;9.82;;
81834;SDS011;71272;52.166;4.498;2024-03-22T10:20:58;22.65;;;10.40;;
81834;SDS011;71272;52.166;4.498;2024-03-22T10:23:25;23.92;;;10.18;;
81834;SDS011;71272;52.166;4.498;2024-03-22T10:25:51;27.35;;;11.45;;
81834;SDS011;71272;52.166;4.498;2024-03-22T10:28:16;23.60;;;10.07;;
81834;SDS011;71272;52.166;4.498;2024-03-22T10:30:41;26.67;;;9.30;;
81834;SDS011;71272;52.166;4.498;2024-03-22T10:33:08;31.13;;;11.05;;
81834;SDS011;71272;52.166;4.498;2024-03-22T10:35:33;23.20;;;10.73;;
81834;SDS011;71272;52.166;4.498;2024-03-22T10:37:59;23.77;;;9.63;;
81834;SDS011;71272;52.166;4.498;2024-03-22T10:40:26;32.55;;;11.48;;
81834;SDS011;71272;52.166;4.498;2024-03-22T10:45:18;26.93;;;10.43;;
81834;SDS011;71272;52.166;4.498;2024-03-22T10:47:47;28.88;;;11.82;;
81834;SDS011;71272;52.166;4.498;2024-03-22T10:50:13;32.35;;;11.98;;
81834;SDS011;71272;52.166;4.498;2024-03-22T10:55:10;29.33;;;11.25;;
81834;SDS011;71272;52.166;4.498;2024-03-22T10:57:41;30.60;;;12.73;;
81834;SDS011;71272;52.166;4.498;2024-03-22T11:00:10;31.73;;;11.80;;
81834;SDS011;71272;52.166;4.498;2024-03-22T11:02:36;31.73;;;11.70;;
81834;SDS011;71272;52.166;4.498;2024-03-22T11:05:02;28.35;;;12.07;;
81834;SDS011;71272;52.166;4.498;2024-03-22T11:07:29;26.80;;;12.20;;
81834;SDS011;71272;52.166;4.498;2024-03-22T11:10:00;34.85;;;13.75;;
81834;SDS011;71272;52.166;4.498;2024-03-22T11:12:27;31.60;;;13.25;;
81834;SDS011;71272;52.166;4.498;2024-03-22T11:14:53;31.08;;;12.45;;
81834;SDS011;71272;52.166;4.498;2024-03-22T11:17:19;22.83;;;10.23;;
81834;SDS011;71272;52.166;4.498;2024-03-22T11:19:44;26.33;;;11.37;;
81834;SDS011;71272;52.166;4.498;2024-03-22T11:22:09;30.13;;;11.10;;
81834;SDS011;71272;52.166;4.498;2024-03-22T11:24:37;32.08;;;12.27;;
81834;SDS011;71272;52.166;4.498;2024-03-22T11:27:02;26.75;;;10.73;;
81834;SDS011;71272;52.166;4.498;2024-03-22T11:29:28;24.88;;;9.50;;
81834;SDS011;71272;52.166;4.498;2024-03-22T11:31:53;35.93;;;12.13;;
81834;SDS011;71272;52.166;4.498;2024-03-22T11:34:19;26.77;;;10.17;;
81834;SDS011;71272;52.166;4.498;2024-03-22T11:36:44;32.17;;;10.55;;
81834;SDS011;71272;52.166;4.498;2024-03-22T11:39:09;26.07;;;11.30;;
81834;SDS011;71272;52.166;4.498;2024-03-22T11:41:35;24.57;;;10.53;;
81834;SDS011;71272;52.166;4.498;2024-03-22T11:44:00;29.05;;;10.75;;
81834;SDS011;71272;52.166;4.498;2024-03-22T11:46:27;26.20;;;10.25;;
81834;SDS011;71272;52.166;4.498;2024-03-22T11:48:53;22.65;;;10.40;;
81834;SDS011;71272;52.166;4.498;2024-03-22T11:51:19;24.33;;;11.18;;
81834;SDS011;71272;52.166;4.498;2024-03-22T11:53:49;23.15;;;11.13;;
81834;SDS011;71272;52.166;4.498;2024-03-22T11:56:17;27.85;;;11.13;;
81834;SDS011;71272;52.166;4.498;2024-03-22T11:58:43;33.50;;;10.77;;
81834;SDS011;71272;52.166;4.498;2024-03-22T12:01:10;23.67;;;9.88;;
81834;SDS011;71272;52.166;4.498;2024-03-22T12:03:37;25.58;;;10.32;;
81834;SDS011;71272;52.166;4.498;2024-03-22T12:06:03;22.55;;;10.45;;
81834;SDS011;71272;52.166;4.498;2024-03-22T12:08:29;27.88;;;9.80;;
81834;SDS011;71272;52.166;4.498;2024-03-22T12:10:54;25.43;;;11.40;;
81834;SDS011;71272;52.166;4.498;2024-03-22T12:13:19;27.03;;;11.77;;
81834;SDS011;71272;52.166;4.498;2024-03-22T12:15:44;24.70;;;10.43;;
81834;SDS011;71272;52.166;4.498;2024-03-22T12:18:10;25.10;;;10.57;;
81834;SDS011;71272;52.166;4.498;2024-03-22T12:20:35;25.10;;;10.63;;
81834;SDS011;71272;52.166;4.498;2024-03-22T12:23:00;29.83;;;11.17;;
81834;SDS011;71272;52.166;4.498;2024-03-22T12:25:26;25.87;;;11.07;;
81834;SDS011;71272;52.166;4.498;2024-03-22T12:27:51;26.70;;;10.97;;
81834;SDS011;71272;52.166;4.498;2024-03-22T12:30:16;27.27;;;10.67;;
81834;SDS011;71272;52.166;4.498;2024-03-22T12:32:42;23.13;;;9.95;;
81834;SDS011;71272;52.166;4.498;2024-03-22T12:35:07;21.90;;;10.33;;
81834;SDS011;71272;52.166;4.498;2024-03-22T12:37:33;32.65;;;11.55;;
81834;SDS011;71272;52.166;4.498;2024-03-22T12:39:58;23.33;;;10.13;;
81834;SDS011;71272;52.166;4.498;2024-03-22T12:42:24;26.53;;;10.27;;
81834;SDS011;71272;52.166;4.498;2024-03-22T12:44:49;26.48;;;10.48;;
81834;SDS011;71272;52.166;4.498;2024-03-22T12:47:14;31.77;;;11.30;;
81834;SDS011;71272;52.166;4.498;2024-03-22T12:49:39;31.77;;;10.20;;
81834;SDS011;71272;52.166;4.498;2024-03-22T12:52:05;30.20;;;11.33;;
81834;SDS011;71272;52.166;4.498;2024-03-22T12:54:31;25.42;;;10.13;;
81834;SDS011;71272;52.166;4.498;2024-03-22T12:56:56;22.73;;;10.73;;
81834;SDS011;71272;52.166;4.498;2024-03-22T12:59:22;29.37;;;11.30;;
81834;SDS011;71272;52.166;4.498;2024-03-22T13:01:47;28.13;;;11.80;;
81834;SDS011;71272;52.166;4.498;2024-03-22T13:04:12;21.47;;;10.47;;
81834;SDS011;71272;52.166;4.498;2024-03-22T13:06:38;25.53;;;10.97;;
81834;SDS011;71272;52.166;4.498;2024-03-22T13:09:03;31.53;;;11.13;;
81834;SDS011;71272;52.166;4.498;2024-03-22T13:11:29;27.55;;;11.98;;
81834;SDS011;71272;52.166;4.498;2024-03-22T13:13:56;27.60;;;11.05;;
81834;SDS011;71272;52.166;4.498;2024-03-22T13:16:22;29.90;;;10.23;;
81834;SDS011;71272;52.166;4.498;2024-03-22T13:18:48;34.55;;;11.75;;
81834;SDS011;71272;52.166;4.498;2024-03-22T13:21:13;33.58;;;12.48;;
81834;SDS011;71272;52.166;4.498;2024-03-22T13:23:38;24.93;;;11.37;;
81834;SDS011;71272;52.166;4.498;2024-03-22T13:26:04;27.13;;;11.23;;
81834;SDS011;71272;52.166;4.498;2024-03-22T13:28:30;35.90;;;11.70;;
81834;SDS011;71272;52.166;4.498;2024-03-22T13:31:02;26.20;;;9.95;;
81834;SDS011;71272;52.166;4.498;2024-03-22T13:33:28;25.30;;;10.43;;
81834;SDS011;71272;52.166;4.498;2024-03-22T13:38:20;25.20;;;11.17;;
81834;SDS011;71272;52.166;4.498;2024-03-22T13:40:52;35.15;;;10.50;;
81834;SDS011;71272;52.166;4.498;2024-03-22T13:43:20;24.38;;;10.95;;
81834;SDS011;71272;52.166;4.498;2024-03-22T13:45:46;23.63;;;10.20;;
81834;SDS011;71272;52.166;4.498;2024-03-22T13:48:14;21.55;;;9.88;;
81834;SDS011;71272;52.166;4.498;2024-03-22T13:50:39;24.50;;;9.73;;
81834;SDS011;71272;52.166;4.498;2024-03-22T13:53:05;27.42;;;9.95;;
81834;SDS011;71272;52.166;4.498;2024-03-22T13:55:31;25.65;;;10.07;;
81834;SDS011;71272;52.166;4.498;2024-03-22T14:00:22;18.47;;;8.57;;
81834;SDS011;71272;52.166;4.498;2024-03-22T14:02:50;20.60;;;8.35;;
81834;SDS011;71272;52.166;4.498;2024-03-22T14:05:18;34.70;;;11.00;;
81834;SDS011;71272;52.166;4.498;2024-03-22T14:07:43;24.63;;;9.10;;
81834;SDS011;71272;52.166;4.498;2024-03-22T14:10:09;24.97;;;8.67;;
81834;SDS011;71272;52.166;4.498;2024-03-22T14:12:34;24.05;;;8.68;;
81834;SDS011;71272;52.166;4.498;2024-03-22T14:15:00;27.83;;;8.80;;
81834;SDS011;71272;52.166;4.498;2024-03-22T14:17:25;26.63;;;8.73;;
81834;SDS011;71272;52.166;4.498;2024-03-22T14:19:50;26.40;;;7.63;;
81834;SDS011;71272;52.166;4.498;2024-03-22T14:24:42;20.13;;;7.50;;
81834;SDS011;71272;52.166;4.498;2024-03-22T14:27:08;22.15;;;7.65;;
81834;SDS011;71272;52.166;4.498;2024-03-22T14:29:33;26.07;;;7.13;;
81834;SDS011;71272;52.166;4.498;2024-03-22T14:31:58;27.20;;;6.97;;
81834;SDS011;71272;52.166;4.498;2024-03-22T14:34:24;19.93;;;5.53;;